Time;durP1;ratioP1;P1;durP2;ratioP2;P2;SDS_P1;SDS_P2;PMS_P1;PMS_P2;Temp;Humidity;BMP_temperature;BMP_pressure;BME280_temperature;BME280_humidity;BME280_pressure;Samples;Min_cycle;Max_cycle;Signal;HPM_P1;HPM_P2
2022/01/29 00:01:31;;;;;;;7.83;4.30;;;5.10;99.90;;;;;;5035017;28;20449;-66
2022/01/29 00:04:00;;;;;;;6.77;3.90;;;5.10;99.90;;;;;;5035038;28;20395;-74
2022/01/29 00:06:26;;;;;;;6.53;4.10;;;5.10;99.90;;;;;;5034527;28;20409;-75
2022/01/29 00:08:55;;;;;;;17.50;4.60;;;5.20;99.90;;;;;;5034157;28;20402;-74
2022/01/29 00:11:30;;;;;;;13.57;4.77;;;5.20;99.90;;;;;;5034792;28;20929;-75
2022/01/29 00:13:59;;;;;;;7.97;4.47;;;5.20;99.90;;;;;;5034775;28;20477;-67
2022/01/29 00:16:24;;;;;;;14.37;4.50;;;5.20;99.90;;;;;;5034687;28;20428;-75
2022/01/29 00:18:53;;;;;;;8.10;5.23;;;5.10;99.90;;;;;;5033926;28;21032;-75
2022/01/29 00:21:19;;;;;;;18.07;5.47;;;5.10;99.90;;;;;;5034612;28;20431;-67
2022/01/29 00:23:48;;;;;;;13.13;4.07;;;5.10;99.90;;;;;;5034184;28;20419;-68
2022/01/29 00:26:16;;;;;;;4.77;4.00;;;5.00;99.90;;;;;;5033291;28;20410;-67
2022/01/29 00:28:42;;;;;;;10.63;5.37;;;5.10;99.90;;;;;;5033123;28;20775;-73
2022/01/29 00:31:10;;;;;;;7.13;6.23;;;5.00;99.90;;;;;;5034521;28;20436;-67
2022/01/29 00:33:38;;;;;;;18.10;7.40;;;5.00;99.90;;;;;;5034426;28;20425;-67
2022/01/29 00:36:04;;;;;;;7.30;4.47;;;5.00;99.90;;;;;;5034401;28;20441;-73
2022/01/29 00:38:35;;;;;;;14.43;6.27;;;5.00;99.90;;;;;;5033322;28;20830;-73
2022/01/29 00:41:01;;;;;;;6.80;4.63;;;5.00;99.90;;;;;;5034040;28;20515;-69
2022/01/29 00:43:27;;;;;;;10.00;6.90;;;5.10;99.90;;;;;;5034014;28;20414;-68
2022/01/29 00:45:54;;;;;;;12.97;4.23;;;5.00;99.90;;;;;;5034203;28;20407;-68
2022/01/29 00:48:22;;;;;;;10.33;6.80;;;5.00;99.90;;;;;;5034312;28;20435;-74
2022/01/29 00:50:48;;;;;;;12.17;6.93;;;5.00;99.90;;;;;;5033369;28;20453;-68
2022/01/29 00:53:17;;;;;;;12.93;6.00;;;5.00;99.90;;;;;;5034228;28;20439;-74
2022/01/29 00:55:44;;;;;;;11.10;6.70;;;5.10;99.90;;;;;;5034075;28;20454;-74
2022/01/29 00:58:10;;;;;;;12.97;7.90;;;5.10;99.90;;;;;;5034150;28;20406;-68
2022/01/29 01:00:36;;;;;;;12.83;8.40;;;5.10;99.90;;;;;;5032465;28;20756;-68
2022/01/29 01:03:05;;;;;;;14.77;11.33;;;5.10;99.90;;;;;;5033959;28;20409;-67
2022/01/29 01:05:31;;;;;;;11.70;8.70;;;5.20;99.90;;;;;;5034206;28;20414;-68
2022/01/29 01:07:58;;;;;;;27.10;9.40;;;5.10;99.90;;;;;;5033893;28;20395;-67
2022/01/29 01:10:36;;;;;;;11.37;9.00;;;5.20;99.90;;;;;;5032873;28;20432;-74
2022/01/29 01:13:02;;;;;;;17.27;8.50;;;5.20;99.90;;;;;;5033801;28;20411;-68
2022/01/29 01:15:28;;;;;;;13.07;7.63;;;5.30;1.00;;;;;;5033758;28;20465;-74
2022/01/29 01:17:54;;;;;;;18.77;9.33;;;5.30;1.00;;;;;;5033270;28;20408;-68
2022/01/29 01:20:20;;;;;;;30.53;10.77;;;5.30;1.00;;;;;;5032780;28;20566;-68
2022/01/29 01:22:55;;;;;;;13.40;9.33;;;5.30;1.00;;;;;;5033565;28;20493;-74
2022/01/29 01:25:22;;;;;;;17.57;9.80;;;5.30;1.00;;;;;;5033543;28;20405;-75
2022/01/29 01:27:48;;;;;;;14.67;10.30;;;5.30;1.00;;;;;;5033630;28;20810;-74
2022/01/29 01:30:14;;;;;;;21.57;9.77;;;5.30;1.00;;;;;;5032555;28;20519;-74
2022/01/29 01:32:39;;;;;;;12.43;9.70;;;5.30;1.00;;;;;;5033448;28;20492;-74
2022/01/29 01:35:21;;;;;;;16.60;9.27;;;5.40;1.00;;;;;;5032862;28;20647;-74
2022/01/29 01:37:54;;;;;;;21.07;9.67;;;5.40;1.00;;;;;;5033476;28;20317;-74
2022/01/29 01:40:22;;;;;;;15.00;11.27;;;5.40;1.00;;;;;;5032365;28;20469;-69
2022/01/29 01:43:01;;;;;;;14.53;10.23;;;5.40;1.00;;;;;;5033212;28;20488;-74
2022/01/29 01:45:28;;;;;;;12.47;8.10;;;5.40;1.00;;;;;;5033540;28;20910;-74
2022/01/29 01:47:55;;;;;;;15.60;11.10;;;5.50;1.00;;;;;;5033337;28;20411;-69
2022/01/29 01:50:21;;;;;;;20.00;10.27;;;5.50;1.00;;;;;;5032401;28;20466;-70
2022/01/29 01:52:54;;;;;;;14.70;9.67;;;5.50;1.00;;;;;;5032910;28;20412;-73
2022/01/29 01:55:22;;;;;;;15.50;8.97;;;5.60;1.00;;;;;;5031920;28;20449;-70
2022/01/29 01:57:48;;;;;;;24.20;10.13;;;5.50;1.00;;;;;;5033385;28;20433;-74
2022/01/29 02:00:15;;;;;;;19.73;10.80;;;5.50;1.00;;;;;;5031041;28;20430;-70
2022/01/29 02:02:44;;;;;;;9.13;8.27;;;5.60;1.00;;;;;;5033291;28;20418;-73
2022/01/29 02:05:10;;;;;;;14.20;9.33;;;5.60;1.00;;;;;;5033174;28;20420;-70
2022/01/29 02:07:36;;;;;;;12.30;8.47;;;5.60;1.00;;;;;;5033276;28;20402;-74
2022/01/29 02:20:49;;;;;;;23.00;8.97;;;5.60;1.00;;;;;;5032063;28;20384;-75
2022/01/29 02:23:17;;;;;;;14.67;9.63;;;5.60;1.00;;;;;;5033006;28;20409;-75
2022/01/29 02:25:45;;;;;;;18.80;10.00;;;5.60;1.00;;;;;;5033154;28;20429;-75
2022/01/29 02:28:16;;;;;;;12.63;8.20;;;5.60;1.00;;;;;;5032624;28;20405;-73
2022/01/29 02:31:03;;;;;;;16.60;10.00;;;5.70;1.00;;;;;;5031905;28;20456;-74
2022/01/29 02:33:34;;;;;;;14.23;10.10;;;5.70;1.00;;;;;;5031530;28;20929;-73
2022/01/29 02:36:06;;;;;;;14.73;9.53;;;5.70;1.00;;;;;;5032850;28;20408;-72
2022/01/29 02:38:41;;;;;;;20.50;8.97;;;5.70;1.00;;;;;;5032107;28;20408;-74
2022/01/29 02:41:07;;;;;;;18.10;10.23;;;5.70;1.00;;;;;;5032746;28;20425;-74
2022/01/29 02:44:03;;;;;;;13.37;9.40;;;5.70;1.00;;;;;;5032696;28;20486;-74
2022/01/29 02:46:42;;;;;;;15.40;9.80;;;5.80;1.00;;;;;;5031781;28;20545;-72
2022/01/29 02:49:08;;;;;;;18.20;10.30;;;5.80;1.00;;;;;;5031550;28;20468;-72
2022/01/29 02:51:37;;;;;;;10.43;8.33;;;5.80;1.00;;;;;;5032972;28;20841;-74
2022/01/29 02:54:03;;;;;;;14.00;8.73;;;5.70;1.00;;;;;;5036256;28;20452;-74
2022/01/29 02:56:39;;;;;;;10.70;8.13;;;5.80;1.00;;;;;;5036327;28;20398;-72
2022/01/29 02:59:05;;;;;;;18.00;9.33;;;5.80;1.00;;;;;;5035311;28;20416;-74
2022/01/29 03:01:31;;;;;;;15.53;9.10;;;5.80;1.00;;;;;;5036116;28;20418;-74
2022/01/29 03:03:57;;;;;;;14.03;7.80;;;5.90;1.00;;;;;;5035907;28;20436;-74
2022/01/29 03:06:23;;;;;;;18.83;8.13;;;5.90;1.00;;;;;;5036078;28;20458;-72
2022/01/29 03:08:49;;;;;;;13.57;9.10;;;5.90;1.00;;;;;;5034835;28;20535;-72
2022/01/29 03:11:19;;;;;;;15.33;8.53;;;5.90;1.00;;;;;;5036077;28;20823;-74
2022/01/29 03:13:46;;;;;;;12.43;8.13;;;5.90;1.00;;;;;;5049151;28;20475;-72
2022/01/29 03:16:12;;;;;;;12.37;7.47;;;6.00;1.00;;;;;;5055999;28;20400;-71
2022/01/29 03:18:38;;;;;;;14.13;8.97;;;6.00;1.00;;;;;;5054916;28;20417;-73
2022/01/29 03:23:54;;;;;;;12.57;7.17;;;6.00;1.00;;;;;;5055593;28;20758;-73
2022/01/29 03:26:20;;;;;;;13.03;7.40;;;6.10;1.00;;;;;;5055522;28;20429;-73
2022/01/29 03:28:54;;;;;;;11.87;8.60;;;6.10;1.00;;;;;;5054364;28;20983;-74
2022/01/29 03:31:44;;;;;;;9.53;6.37;;;6.10;1.00;;;;;;5055442;28;20527;-71
2022/01/29 03:34:10;;;;;;;12.63;8.40;;;6.10;1.00;;;;;;5040779;28;20457;-71
2022/01/29 03:36:39;;;;;;;12.80;6.77;;;6.10;1.00;;;;;;5048499;28;20465;-74
2022/01/29 03:39:14;;;;;;;11.00;7.63;;;6.10;1.00;;;;;;5053601;28;20465;-72
2022/01/29 03:41:40;;;;;;;11.47;7.70;;;6.10;1.00;;;;;;5055179;28;20847;-74
2022/01/29 03:44:17;;;;;;;8.37;6.90;;;6.20;1.00;;;;;;5054900;28;20897;-74
2022/01/29 03:50:33;;;;;;;7.13;5.67;;;6.20;1.00;;;;;;5073474;28;20789;-75
2022/01/29 04:02:31;;;;;;;7.43;6.20;;;6.40;12.00;;;;;;5074430;28;20446;-72
2022/01/29 04:05:16;;;;;;;9.00;6.20;;;6.40;17.40;;;;;;5074148;28;20543;-74
2022/01/29 04:07:41;;;;;;;8.13;7.37;;;6.40;20.70;;;;;;5045512;28;20426;-72
2022/01/29 04:10:08;;;;;;;16.73;6.80;;;6.50;23.80;;;;;;5055606;28;20419;-71
2022/01/29 04:19:02;;;;;;;11.73;7.10;;;6.60;31.20;;;;;;5012631;28;20414;-74
2022/01/29 04:21:28;;;;;;;8.87;6.80;;;6.70;33.70;;;;;;5012324;28;20459;-71
2022/01/29 04:23:54;;;;;;;10.43;6.53;;;6.70;34.40;;;;;;5027500;28;20421;-73
2022/01/29 04:26:22;;;;;;;9.23;5.90;;;6.80;35.00;;;;;;5047560;28;20464;-72
2022/01/29 04:28:52;;;;;;;9.00;7.43;;;6.80;36.70;;;;;;5073704;28;21118;-72
2022/01/29 04:31:20;;;;;;;11.23;7.40;;;6.80;36.90;;;;;;5074213;28;20976;-73
2022/01/29 04:33:47;;;;;;;8.67;6.00;;;6.80;36.80;;;;;;5056271;28;20409;-73
2022/01/29 04:46:44;;;;;;;9.70;6.27;;;6.90;38.70;;;;;;5073929;28;20399;-74
2022/01/29 04:49:10;;;;;;;8.43;6.10;;;6.90;38.20;;;;;;5055133;28;20408;-73
2022/01/29 04:51:38;;;;;;;9.77;6.00;;;6.90;38.90;;;;;;5073682;28;20442;-73
2022/01/29 04:57:20;;;;;;;5.03;4.63;;;6.90;40.50;;;;;;5073443;28;20403;-73
2022/01/29 05:07:34;;;;;;;10.60;5.00;;;6.90;43.00;;;;;;4992538;28;20443;-73
2022/01/29 05:09:44;;;;;;;8.60;4.80;;;7.00;44.00;;;;;;4977705;28;20408;-72
2022/01/29 05:12:12;;;;;;;3.93;3.63;;;7.00;44.00;;;;;;4992421;28;20499;-73
2022/01/29 05:14:52;;;;;;;5.77;5.17;;;7.00;44.00;;;;;;5058829;28;20470;-73
2022/01/29 05:28:33;;;;;;;14.30;6.87;;;7.00;48.40;;;;;;5072390;28;20418;-76
2022/01/29 05:31:08;;;;;;;14.37;7.07;;;7.10;49.00;;;;;;5073246;28;20479;-74
2022/01/29 05:33:34;;;;;;;10.00;6.53;;;7.10;51.00;;;;;;5073472;28;20404;-73
2022/01/29 05:36:18;;;;;;;22.70;7.00;;;7.10;51.90;;;;;;5072516;28;20413;-72
2022/01/29 05:38:44;;;;;;;13.70;7.67;;;7.10;53.70;;;;;;5072321;28;20170;-74
2022/01/29 05:45:09;;;;;;;25.03;7.10;;;7.10;55.60;;;;;;5053096;28;20428;-75
2022/01/29 05:57:19;;;;;;;13.03;7.07;;;7.20;61.00;;;;;;4975066;28;20423;-74
2022/01/29 05:59:55;;;;;;;16.77;7.67;;;7.20;61.30;;;;;;5034019;28;20412;-72
2022/01/29 06:02:23;;;;;;;9.00;5.43;;;7.30;62.20;;;;;;5049785;28;20183;-74
2022/01/29 06:05:09;;;;;;;11.90;6.37;;;7.30;62.50;;;;;;5067911;28;20433;-74
2022/01/29 06:11:18;;;;;;;9.00;6.67;;;7.30;63.30;;;;;;5071340;28;20435;-70
2022/01/29 06:13:44;;;;;;;15.87;7.90;;;7.30;63.50;;;;;;5072623;28;20438;-75
2022/01/29 06:16:17;;;;;;;15.00;10.27;;;7.30;64.60;;;;;;5072970;28;20892;-73
2022/01/29 06:22:12;;;;;;;14.00;9.97;;;7.30;66.20;;;;;;5072829;28;20439;-74
2022/01/29 06:28:12;;;;;;;23.17;11.37;;;7.30;68.50;;;;;;4993378;28;20418;-74
2022/01/29 06:31:48;;;;;;;;;;;;;;;;;;;;;
2022/01/29 06:40:45;;;;;;;15.77;8.90;;;7.40;75.80;;;;;;4879373;29;20440;-73
2022/01/29 06:43:12;;;;;;;16.60;10.50;;;7.40;78.00;;;;;;4962552;28;20491;-75
2022/01/29 06:45:40;;;;;;;26.07;11.80;;;7.40;78.10;;;;;;4959059;28;20527;-73
2022/01/29 06:48:06;;;;;;;24.43;11.13;;;7.40;78.10;;;;;;5049741;28;20424;-75
2022/01/29 06:54:50;;;;;;;;;;;;;;;;;;;;;
2022/01/29 07:00:31;;;;;;;20.07;9.63;;;7.50;82.90;;;;;;5075485;28;20534;-72
2022/01/29 07:02:59;;;;;;;29.27;10.73;;;7.50;83.40;;;;;;5075480;28;20416;-73
2022/01/29 07:05:51;;;;;;;;;;;;;;;;;;;;;
2022/01/29 07:09:11;;;;;;;22.27;10.33;;;7.50;84.50;;;;;;5075929;28;20423;-74
2022/01/29 07:11:30;;;;;;;14.10;8.80;;;7.60;85.30;;;;;;5070569;28;20801;-71
2022/01/29 07:14:03;;;;;;;21.40;11.20;;;7.50;84.90;;;;;;5075463;28;20423;-74
2022/01/29 07:19:55;;;;;;;15.60;10.60;;;7.50;86.00;;;;;;5074560;28;20426;-74
2022/01/29 07:22:28;;;;;;;14.10;8.17;;;7.50;86.10;;;;;;5065835;28;20500;-74
2022/01/29 07:24:54;;;;;;;15.27;10.50;;;7.50;86.80;;;;;;5055617;28;20401;-75
2022/01/29 07:27:20;;;;;;;25.47;11.20;;;7.50;87.00;;;;;;5064466;28;20421;-75
2022/01/29 07:30:16;;;;;;;23.97;10.10;;;7.50;87.30;;;;;;5074657;28;20769;-74
2022/01/29 07:32:45;;;;;;;24.63;10.63;;;7.50;87.30;;;;;;5067056;28;20932;-74
2022/01/29 07:35:13;;;;;;;16.63;9.30;;;7.50;87.30;;;;;;5075097;28;20448;-75
2022/01/29 07:37:38;;;;;;;20.10;11.53;;;7.50;87.40;;;;;;5056033;28;20428;-74
2022/01/29 07:40:06;;;;;;;16.90;10.23;;;7.50;87.40;;;;;;5074205;28;20419;-75
2022/01/29 07:42:32;;;;;;;15.53;10.03;;;7.50;87.40;;;;;;5074043;28;20174;-74
2022/01/29 07:44:58;;;;;;;15.67;9.07;;;7.50;87.50;;;;;;5075294;28;20420;-75
2022/01/29 07:47:26;;;;;;;12.37;7.87;;;7.50;87.60;;;;;;5059990;28;20790;-75
2022/01/29 07:59:59;;;;;;;15.67;9.60;;;7.50;89.50;;;;;;5073635;28;20373;-75
2022/01/29 08:02:24;;;;;;;10.97;7.00;;;7.50;89.30;;;;;;5043163;28;20414;-74
2022/01/29 08:04:50;;;;;;;14.80;8.97;;;7.50;89.70;;;;;;5074826;28;20450;-75
2022/01/29 08:07:16;;;;;;;19.77;9.80;;;7.50;90.10;;;;;;5056354;28;20174;-75
2022/01/29 08:09:43;;;;;;;23.67;10.13;;;7.50;90.20;;;;;;5072338;28;20535;-76
2022/01/29 08:12:09;;;;;;;11.63;8.67;;;7.50;90.40;;;;;;5073142;28;20432;-75
2022/01/29 08:14:38;;;;;;;10.90;7.57;;;7.60;90.40;;;;;;5074256;28;20480;-74
2022/01/29 08:20:45;;;;;;;20.33;9.27;;;7.60;90.80;;;;;;5068557;28;20416;-75
2022/01/29 08:23:11;;;;;;;13.80;9.37;;;7.60;90.80;;;;;;5063591;28;20930;-74
2022/01/29 08:25:48;;;;;;;17.80;8.70;;;7.60;90.80;;;;;;5074271;28;20576;-74
2022/01/29 08:28:14;;;;;;;17.07;9.27;;;7.60;90.90;;;;;;5056450;28;20423;-75
2022/01/29 08:30:41;;;;;;;12.77;7.20;;;7.60;90.90;;;;;;5073459;28;20463;-74
2022/01/29 08:36:13;;;;;;;9.17;7.13;;;7.60;91.30;;;;;;5073963;28;20511;-75
2022/01/29 08:38:39;;;;;;;12.80;7.97;;;7.60;91.50;;;;;;5073381;28;20451;-76
2022/01/29 08:41:05;;;;;;;17.07;8.93;;;7.60;91.60;;;;;;5074171;28;20421;-76
2022/01/29 08:48:13;;;;;;;18.33;7.30;;;7.70;91.90;;;;;;5048599;28;20474;-75
2022/01/29 08:53:36;;;;;;;9.20;5.07;;;7.70;92.20;;;;;;5056072;28;20440;-75
2022/01/29 08:56:03;;;;;;;17.07;8.07;;;7.70;92.50;;;;;;5073742;28;20587;-75
2022/01/29 08:59:14;;;;;;;6.43;5.83;;;7.70;92.80;;;;;;5055214;28;20413;-77
2022/01/29 09:01:53;;;;;;;12.47;7.30;;;7.70;92.80;;;;;;5056157;28;20506;-75
2022/01/29 09:04:29;;;;;;;9.70;6.80;;;7.70;92.80;;;;;;5073723;28;20436;-74
2022/01/29 09:07:26;;;;;;;18.17;8.23;;;7.80;92.90;;;;;;5073858;28;20462;-76
2022/01/29 09:13:52;;;;;;;13.13;7.60;;;7.80;92.90;;;;;;5073838;28;20412;-75
2022/01/29 09:16:49;;;;;;;6.97;5.87;;;7.80;92.90;;;;;;5073475;28;20413;-75
2022/01/29 09:22:38;;;;;;;14.43;7.07;;;7.80;93.20;;;;;;5073482;28;20443;-75
2022/01/29 09:25:46;;;;;;;15.60;8.50;;;7.80;93.20;;;;;;4956113;28;20409;-74
2022/01/29 09:28:13;;;;;;;13.07;7.77;;;7.90;93.20;;;;;;4972070;28;20405;-74
2022/01/29 09:30:40;;;;;;;16.13;8.20;;;7.90;93.40;;;;;;4971628;28;20432;-74
2022/01/29 09:33:06;;;;;;;16.13;8.97;;;7.90;93.60;;;;;;5020036;28;20408;-74
2022/01/29 09:36:12;;;;;;;15.53;7.67;;;7.90;93.80;;;;;;5073320;28;20448;-75
2022/01/29 09:38:37;;;;;;;10.90;7.37;;;7.90;93.70;;;;;;5072335;28;20471;-75
2022/01/29 09:47:50;;;;;;;11.00;7.13;;;8.00;93.50;;;;;;5073230;28;20419;-74
2022/01/29 09:50:18;;;;;;;8.37;5.90;;;8.00;93.40;;;;;;5072160;28;20440;-74
2022/01/29 09:52:44;;;;;;;6.77;6.03;;;8.00;93.10;;;;;;5072906;28;20385;-75
2022/01/29 09:55:10;;;;;;;8.83;6.03;;;8.00;93.00;;;;;;5073328;28;20505;-75
2022/01/29 09:57:37;;;;;;;11.00;6.43;;;8.00;92.90;;;;;;5072940;28;20412;-74
2022/01/29 10:00:05;;;;;;;9.37;6.17;;;8.00;92.90;;;;;;5072276;28;20873;-75
2022/01/29 10:02:31;;;;;;;6.97;4.73;;;8.10;93.00;;;;;;5075077;28;20424;-73
2022/01/29 10:04:57;;;;;;;8.47;5.53;;;8.20;93.00;;;;;;5076757;28;20440;-73
2022/01/29 10:07:28;;;;;;;7.03;5.93;;;8.20;92.30;;;;;;5076898;28;20420;-75
2022/01/29 10:09:56;;;;;;;7.87;5.93;;;8.10;91.30;;;;;;5076256;28;20821;-73
2022/01/29 10:12:27;;;;;;;6.23;4.90;;;8.00;90.20;;;;;;5077103;28;20447;-74
2022/01/29 10:14:58;;;;;;;5.03;4.00;;;8.00;90.20;;;;;;5076887;28;20523;-75
2022/01/29 10:17:46;;;;;;;6.10;4.00;;;8.00;89.70;;;;;;5076903;28;20400;-75
2022/01/29 10:20:24;;;;;;;4.77;4.17;;;8.00;88.60;;;;;;5076034;28;20402;-75
2022/01/29 10:23:10;;;;;;;8.17;4.27;;;8.00;89.10;;;;;;5076770;28;20892;-75
2022/01/29 10:25:41;;;;;;;6.50;4.50;;;8.00;88.60;;;;;;5076153;28;20428;-76
2022/01/29 10:28:17;;;;;;;5.73;4.30;;;8.00;88.70;;;;;;5076769;28;20893;-76
2022/01/29 10:30:49;;;;;;;4.77;4.37;;;8.00;88.00;;;;;;5075742;28;20503;-74
2022/01/29 10:33:18;;;;;;;11.33;4.50;;;8.00;87.70;;;;;;5076617;28;20403;-74
2022/01/29 10:35:47;;;;;;;4.23;3.80;;;8.10;87.80;;;;;;5076749;28;20880;-74
2022/01/29 10:38:23;;;;;;;8.57;5.33;;;8.10;87.80;;;;;;5076556;28;20826;-75
2022/01/29 10:41:10;;;;;;;6.60;4.60;;;8.10;87.80;;;;;;5075456;28;20427;-74
2022/01/29 10:44:10;;;;;;;5.47;4.93;;;8.10;87.80;;;;;;5076419;28;20406;-73
2022/01/29 10:47:06;;;;;;;14.03;5.33;;;8.10;87.80;;;;;;5076382;28;20436;-75
2022/01/29 10:49:34;;;;;;;17.50;6.27;;;8.10;87.50;;;;;;5071994;28;20448;-74
2022/01/29 10:52:10;;;;;;;9.47;5.90;;;8.10;86.70;;;;;;5076242;28;20758;-76
2022/01/29 10:57:53;;;;;;;5.93;5.33;;;8.10;85.60;;;;;;5076226;28;20433;-74
2022/01/29 11:00:24;;;;;;;8.20;4.27;;;8.10;85.90;;;;;;5074727;28;20459;-74
2022/01/29 11:02:57;;;;;;;12.40;5.30;;;8.10;84.70;;;;;;5076317;28;20396;-75
2022/01/29 11:05:26;;;;;;;4.87;4.23;;;8.10;85.20;;;;;;5076124;28;20463;-74
2022/01/29 11:07:54;;;;;;;8.67;6.30;;;8.20;83.30;;;;;;5076059;28;20893;-75
2022/01/29 11:10:30;;;;;;;8.70;5.93;;;8.20;83.70;;;;;;5075070;28;20959;-75
2022/01/29 11:12:56;;;;;;;28.07;6.60;;;8.20;81.30;;;;;;5075453;28;20400;-74
2022/01/29 11:15:25;;;;;;;14.90;6.77;;;8.20;78.70;;;;;;5075385;28;20539;-75
2022/01/29 11:17:51;;;;;;;12.10;5.77;;;8.20;78.70;;;;;;5075651;28;20952;-74
2022/01/29 11:20:18;;;;;;;9.50;6.83;;;8.20;75.40;;;;;;5074861;28;20428;-76
2022/01/29 11:22:48;;;;;;;9.63;5.47;;;8.20;74.80;;;;;;5075896;28;20393;-75
2022/01/29 11:25:23;;;;;;;12.97;7.17;;;8.20;69.20;;;;;;5075746;28;20415;-76
2022/01/29 11:28:16;;;;;;;8.77;4.97;;;8.20;69.10;;;;;;5075883;28;20422;-75
2022/01/29 11:30:43;;;;;;;8.70;5.40;;;8.20;64.40;;;;;;5074684;28;20531;-75
2022/01/29 11:33:09;;;;;;;7.37;6.40;;;8.20;55.00;;;;;;5075311;28;20405;-76
2022/01/29 11:35:56;;;;;;;7.07;4.87;;;8.20;45.30;;;;;;5075249;28;20463;-75
2022/01/29 11:38:31;;;;;;;11.10;6.90;;;8.20;40.70;;;;;;5075431;28;20403;-76
2022/01/29 11:41:02;;;;;;;6.83;4.30;;;8.20;38.10;;;;;;5075361;28;20424;-75
2022/01/29 11:43:35;;;;;;;7.57;4.97;;;8.20;30.90;;;;;;5075147;28;20411;-75
2022/01/29 11:46:08;;;;;;;10.03;4.77;;;8.20;27.90;;;;;;5057516;28;20428;-75
2022/01/29 11:48:56;;;;;;;4.50;4.10;;;8.10;19.20;;;;;;5074561;28;20408;-76
2022/01/29 11:51:40;;;;;;;9.30;5.17;;;8.20;15.40;;;;;;5074812;28;20421;-76
2022/01/29 11:54:12;;;;;;;4.53;4.00;;;8.20;10.90;;;;;;5075031;28;20432;-75
2022/01/29 11:56:44;;;;;;;7.30;4.07;;;8.20;7.20;;;;;;5075082;28;20408;-75
2022/01/29 11:59:42;;;;;;;19.03;5.67;;;8.20;4.10;;;;;;5074160;28;20458;-75
2022/01/29 12:02:45;;;;;;;6.30;3.67;;;8.20;2.50;;;;;;5074961;28;20416;-74
2022/01/29 12:05:14;;;;;;;7.17;4.77;;;8.20;1.00;;;;;;5075014;28;20408;-75
2022/01/29 12:08:14;;;;;;;12.47;5.30;;;8.20;1.00;;;;;;5074748;28;20397;-75
2022/01/29 12:10:52;;;;;;;;;;;;;;;;;;;;;
2022/01/29 12:13:28;;;;;;;10.40;4.57;;;8.30;1.00;;;;;;5075000;28;20397;-74
2022/01/29 12:15:54;;;;;;;11.90;5.43;;;8.30;1.00;;;;;;5074694;28;20452;-76
2022/01/29 12:18:31;;;;;;;8.10;5.23;;;8.30;1.00;;;;;;5074643;28;20407;-75
2022/01/29 12:20:59;;;;;;;10.00;5.30;;;8.30;1.00;;;;;;5074585;28;20415;-75
2022/01/29 12:23:28;;;;;;;13.73;6.40;;;8.40;1.00;;;;;;5074813;28;20415;-76
2022/01/29 12:25:59;;;;;;;6.63;5.07;;;8.40;1.00;;;;;;5073478;28;20412;-74
2022/01/29 12:28:26;;;;;;;10.80;5.17;;;8.40;1.00;;;;;;5055865;28;20921;-75
2022/01/29 12:30:52;;;;;;;6.07;4.10;;;8.40;1.00;;;;;;5073630;28;20459;-75
2022/01/29 12:33:20;;;;;;;8.83;5.10;;;8.50;1.00;;;;;;5074427;28;20405;-74
2022/01/29 12:36:02;;;;;;;13.67;4.27;;;8.40;1.00;;;;;;5074224;28;20440;-75
2022/01/29 12:38:41;;;;;;;17.73;5.33;;;8.50;1.00;;;;;;5074289;28;20409;-75
2022/01/29 12:41:24;;;;;;;7.07;4.10;;;8.50;1.00;;;;;;5074144;28;20436;-75
2022/01/29 12:50:17;;;;;;;10.03;3.27;;;8.50;1.00;;;;;;5073026;28;20395;-76
2022/01/29 12:52:49;;;;;;;18.60;4.17;;;8.50;1.00;;;;;;5074281;28;20400;-75
2022/01/29 12:55:15;;;;;;;11.33;4.07;;;8.50;1.00;;;;;;5073890;28;20456;-76
2022/01/29 12:57:48;;;;;;;19.93;5.00;;;8.60;1.00;;;;;;5073944;28;20723;-78
2022/01/29 13:00:18;;;;;;;9.37;4.87;;;8.60;1.00;;;;;;5054898;28;20195;-77
2022/01/29 13:03:07;;;;;;;13.13;4.60;;;8.60;1.00;;;;;;5056260;28;20409;-76
2022/01/29 13:05:43;;;;;;;13.03;3.77;;;8.60;1.00;;;;;;5072870;28;20443;-74
2022/01/29 13:08:23;;;;;;;14.00;4.50;;;8.70;1.00;;;;;;5073572;28;20430;-77
2022/01/29 13:10:49;;;;;;;10.40;5.07;;;8.60;1.00;;;;;;5072936;28;20515;-76
2022/01/29 13:13:29;;;;;;;7.23;4.30;;;8.70;1.00;;;;;;5073995;28;20432;-76
2022/01/29 13:15:55;;;;;;;7.33;4.30;;;8.70;1.00;;;;;;5073627;28;20332;-77
2022/01/29 13:18:21;;;;;;;5.47;4.97;;;8.70;1.00;;;;;;5073513;28;20437;-77
2022/01/29 13:20:47;;;;;;;5.50;4.10;;;8.70;1.00;;;;;;5072885;28;20448;-76
2022/01/29 13:23:16;;;;;;;15.10;6.13;;;8.70;1.00;;;;;;5073430;28;20698;-77
2022/01/29 13:26:03;;;;;;;6.00;3.80;;;8.70;1.00;;;;;;5073409;28;20392;-76
2022/01/29 13:28:40;;;;;;;7.10;4.50;;;8.70;1.00;;;;;;5072865;28;20454;-79
2022/01/29 13:31:28;;;;;;;16.13;4.83;;;8.70;1.00;;;;;;5073412;28;20424;-75
2022/01/29 13:33:54;;;;;;;7.33;4.93;;;8.80;1.00;;;;;;5053423;28;20397;-76
2022/01/29 13:36:35;;;;;;;15.13;4.40;;;8.80;1.00;;;;;;5053045;28;20452;-77
2022/01/29 13:39:10;;;;;;;9.70;4.37;;;8.80;1.00;;;;;;5052546;28;20166;-76
2022/01/29 13:41:36;;;;;;;6.03;3.87;;;8.90;1.00;;;;;;5053137;28;20555;-76
2022/01/29 13:44:09;;;;;;;5.93;4.13;;;8.90;1.00;;;;;;5052925;28;20849;-75
2022/01/29 13:46:35;;;;;;;13.07;3.83;;;8.90;1.00;;;;;;5053188;28;20425;-76
2022/01/29 13:49:02;;;;;;;13.93;5.33;;;8.90;1.00;;;;;;5052432;28;20802;-76
2022/01/29 13:51:41;;;;;;;3.20;2.93;;;8.90;1.00;;;;;;5053077;28;20922;-76
2022/01/29 13:54:09;;;;;;;5.33;3.30;;;9.00;1.00;;;;;;5052837;28;20417;-75
2022/01/29 13:56:39;;;;;;;6.20;4.33;;;9.00;1.00;;;;;;5053033;28;20430;-76
2022/01/29 13:59:07;;;;;;;8.80;3.20;;;9.00;1.00;;;;;;5052381;28;20417;-74
2022/01/29 14:02:11;;;;;;;10.80;5.63;;;9.00;1.00;;;;;;5053047;28;20466;-75
2022/01/29 14:04:38;;;;;;;8.27;3.17;;;9.00;1.00;;;;;;4971931;28;20480;-76
2022/01/29 14:07:14;;;;;;;16.93;5.43;;;9.10;1.00;;;;;;5038528;28;20420;-74
2022/01/29 14:09:57;;;;;;;5.30;3.20;;;9.10;1.00;;;;;;5052265;28;20405;-75
2022/01/29 14:12:25;;;;;;;7.90;4.20;;;9.10;1.00;;;;;;5053001;28;20449;-75
2022/01/29 14:14:57;;;;;;;6.77;3.90;;;9.20;1.00;;;;;;5052978;28;20441;-76
2022/01/29 14:17:31;;;;;;;8.77;3.27;;;9.20;1.00;;;;;;5035338;28;20414;-75
2022/01/29 14:20:00;;;;;;;5.97;2.43;;;9.20;1.00;;;;;;5051779;28;20731;-75
2022/01/29 14:22:28;;;;;;;13.50;3.40;;;9.20;1.00;;;;;;5052888;28;20401;-74
2022/01/29 14:24:56;;;;;;;14.13;4.30;;;9.30;1.00;;;;;;5052749;28;20405;-75
2022/01/29 14:27:22;;;;;;;6.80;3.10;;;9.30;1.00;;;;;;5052754;28;20416;-72
2022/01/29 14:29:49;;;;;;;15.73;4.47;;;9.30;1.00;;;;;;5052102;28;20398;-75
2022/01/29 14:32:31;;;;;;;7.30;2.90;;;9.30;1.00;;;;;;5052853;28;20417;-74
2022/01/29 14:34:57;;;;;;;18.00;4.17;;;9.30;1.00;;;;;;5052767;28;20818;-73
2022/01/29 14:37:23;;;;;;;7.77;3.23;;;9.30;1.00;;;;;;5052367;28;20954;-72
2022/01/29 14:39:49;;;;;;;10.63;3.70;;;9.30;1.00;;;;;;5034051;28;20463;-73
2022/01/29 14:42:24;;;;;;;14.37;5.10;;;9.40;1.00;;;;;;5052634;28;20502;-74
2022/01/29 14:44:51;;;;;;;9.73;3.60;;;9.40;1.00;;;;;;5046391;28;20639;-74
2022/01/29 14:47:17;;;;;;;4.20;2.87;;;9.40;1.00;;;;;;5041167;28;20933;-75
2022/01/29 14:49:46;;;;;;;18.60;6.43;;;9.30;1.00;;;;;;5047162;28;20397;-74
2022/01/29 14:52:13;;;;;;;6.57;3.43;;;9.30;1.00;;;;;;5040170;28;20215;-74
2022/01/29 14:54:40;;;;;;;12.20;4.50;;;9.30;1.00;;;;;;5036459;28;20472;-72
2022/01/29 14:57:07;;;;;;;13.67;4.53;;;9.30;1.00;;;;;;5046127;28;20406;-73
2022/01/29 14:59:33;;;;;;;12.27;4.30;;;9.30;1.00;;;;;;5055359;28;20400;-73
2022/01/29 15:01:59;;;;;;;15.10;4.60;;;9.30;1.00;;;;;;5056007;28;20424;-71
2022/01/29 15:04:26;;;;;;;7.60;3.73;;;9.30;1.00;;;;;;5039612;28;20411;-72
2022/01/29 15:06:52;;;;;;;6.40;3.80;;;9.30;1.00;;;;;;5035899;28;20172;-75
2022/01/29 15:09:19;;;;;;;6.00;3.77;;;9.30;1.00;;;;;;5039968;28;20401;-74
2022/01/29 15:11:45;;;;;;;5.33;2.30;;;9.30;1.00;;;;;;5039138;28;20449;-76
2022/01/29 15:14:11;;;;;;;15.50;4.47;;;9.30;1.00;;;;;;5035912;28;20402;-75
2022/01/29 15:16:37;;;;;;;9.93;3.83;;;9.30;1.00;;;;;;5035191;28;20217;-76
2022/01/29 15:19:03;;;;;;;7.60;3.40;;;9.30;1.00;;;;;;5034837;28;20407;-76
2022/01/29 15:21:30;;;;;;;12.63;3.90;;;9.30;1.00;;;;;;5035634;28;20574;-75
2022/01/29 15:23:57;;;;;;;8.93;3.83;;;9.40;1.00;;;;;;5035699;28;20414;-73
2022/01/29 15:26:23;;;;;;;11.30;3.57;;;9.30;1.00;;;;;;5017839;28;20422;-72
2022/01/29 15:28:48;;;;;;;11.03;3.77;;;9.40;1.00;;;;;;5035076;28;20417;-75
2022/01/29 15:31:15;;;;;;;4.90;2.93;;;9.40;1.00;;;;;;5035417;28;20782;-75
2022/01/29 15:33:41;;;;;;;13.47;3.43;;;9.40;1.00;;;;;;5018693;28;20508;-74
2022/01/29 15:36:08;;;;;;;6.87;2.43;;;9.40;1.00;;;;;;5074598;28;20849;-72
2022/01/29 15:38:36;;;;;;;10.57;3.97;;;9.50;1.00;;;;;;5074399;28;20483;-75
2022/01/29 15:41:04;;;;;;;7.90;3.50;;;9.50;1.00;;;;;;5041166;28;20427;-72
2022/01/29 15:43:30;;;;;;;12.07;3.73;;;9.40;1.00;;;;;;5035359;28;20828;-75
2022/01/29 15:45:57;;;;;;;5.53;3.50;;;9.40;1.00;;;;;;5052748;28;20401;-74
2022/01/29 15:48:24;;;;;;;13.03;4.10;;;9.50;1.00;;;;;;5036886;28;20414;-75
2022/01/29 15:50:51;;;;;;;9.00;2.93;;;9.50;1.00;;;;;;5054219;28;20929;-75
2022/01/29 15:53:17;;;;;;;12.93;3.40;;;9.40;1.00;;;;;;5054943;28;20848;-74
2022/01/29 15:55:43;;;;;;;14.70;3.43;;;9.40;1.00;;;;;;5046325;28;20545;-68